ADDS METAR Data INFO
IDs: Format: Raw Decoded Include TAF

Data at: 0319 UTC 20 Jul 2018

KSTK 200310Z AUTO 09007KT 10SM CLR 28/15 A3000 RMK AO2
KSTK 200250Z AUTO 07004KT 10SM CLR 28/13 A2999 RMK AO2
KSTK 200230Z AUTO 06006KT 10SM CLR 28/13 A2998 RMK AO2
KSTK 200210Z AUTO 05006KT 10SM CLR 28/14 A2997 RMK AO2
KSTK 200150Z AUTO 06009KT 10SM CLR 30/13 A2996 RMK AO2
KSTK 200130Z AUTO 06010G15KT 10SM CLR 31/13 A2995 RMK AO2
KSTK 200110Z AUTO 05009G15KT 10SM CLR 31/13 A2995 RMK AO2
KSTK 200055Z AUTO 05011G17KT 10SM CLR 32/13 A2994 RMK AO2
KSTK 200035Z AUTO 05009G17KT 10SM CLR 33/13 A2994 RMK AO2
KSTK 200015Z AUTO 05008G14KT 10SM CLR 33/13 A2993 RMK AO2
KSTK 192350Z AUTO 06007KT 10SM CLR 33/15 A2993 RMK AO2
KSTK 192330Z AUTO 07008KT 10SM CLR 35/11 A2993 RMK AO2
KSTK 192310Z AUTO 15004KT 10SM CLR 36/07 A2993 RMK AO2
KSTK 192250Z AUTO 16005KT 10SM CLR 35/08 A2994 RMK AO2
KSTK 192230Z AUTO 16004KT 10SM CLR 37/08 A2994 RMK AO2
KSTK 192210Z AUTO 16008KT 10SM CLR 37/07 A2995 RMK AO2
KSTK 192150Z AUTO 17005KT 10SM CLR 36/07 A2996 RMK AO2
KSTK 192130Z AUTO 00000KT 10SM CLR 36/07 A2997 RMK AO2
KSTK 192110Z AUTO 27005G14KT 10SM SCT120 36/10 A2997 RMK AO2
KSTK 192055Z AUTO 18006G16KT 10SM SCT120 35/09 A2997 RMK AO2
KSTK 192035Z AUTO 21009KT 10SM SCT120 36/10 A2997 RMK AO2
KSTK 192010Z AUTO 22010KT 10SM SCT120 36/11 A2998 RMK AO2
KSTK 191950Z AUTO 19011KT 10SM SCT110 36/12 A2998 RMK AO2
KSTK 191930Z AUTO 18011KT 10SM CLR 35/12 A2999 RMK AO2
KSTK 191910Z AUTO 18011G14KT 10SM CLR 35/13 A3000 RMK AO2
KSTK 191850Z AUTO 20010KT 10SM CLR 35/13 A3001 RMK AO2
KSTK 191830Z AUTO 20008KT 10SM CLR 34/13 A3002 RMK AO2
KSTK 191810Z AUTO 16007KT 10SM CLR 33/14 A3002 RMK AO2
KSTK 191755Z AUTO 27006KT 10SM CLR 32/13 A3002 RMK AO2
KSTK 191735Z AUTO 22003KT 10SM CLR 32/12 A3003 RMK AO2
KSTK 191710Z AUTO 23005KT 10SM CLR 31/13 A3004 RMK AO2
KSTK 191650Z AUTO 21003KT 10SM CLR 30/13 A3004 RMK AO2
KSTK 191630Z AUTO 00000KT 10SM CLR 30/14 A3004 RMK AO2
KSTK 191610Z AUTO 17003KT 10SM CLR 29/15 A3004 RMK AO2
KSTK 191550Z AUTO 00000KT 10SM CLR 28/15 A3004 RMK AO2
KSTK 191530Z AUTO 00000KT 10SM CLR 27/14 A3004 RMK AO2
KSTK 191510Z AUTO 17004KT 10SM CLR 26/15 A3006 RMK AO2
KSTK 191450Z AUTO 26003KT 10SM CLR 25/14 A3006 RMK AO2
KSTK 191430Z AUTO 27004KT 10SM CLR 23/14 A3005 RMK AO2
KSTK 191410Z AUTO 00000KT 10SM CLR 22/14 A3004 RMK AO2
KSTK 191350Z AUTO 00000KT 10SM CLR 20/13 A3004 RMK AO2
KSTK 191330Z AUTO 00000KT 10SM CLR 18/14 A3004 RMK AO2
KSTK 191310Z AUTO 00000KT 10SM CLR 17/14 A3004 RMK AO2
KSTK 191250Z AUTO 00000KT 10SM CLR 17/13 A3004 RMK AO2
KSTK 191230Z AUTO 00000KT 10SM CLR 16/13 A3004 RMK AO2
KSTK 191210Z AUTO 33003KT 10SM CLR 16/13 A3003 RMK AO2
KSTK 191150Z AUTO 31003KT 10SM CLR 13/12 A3003 RMK AO2
KSTK 191130Z AUTO 28006KT 10SM CLR 13/12 A3003 RMK AO2
KSTK 191110Z AUTO 25003KT 10SM CLR 14/13 A3003 RMK AO2
KSTK 191050Z AUTO 00000KT 10SM CLR 16/14 A3003 RMK AO2
KSTK 191030Z AUTO 00000KT 10SM CLR 16/13 A3003 RMK AO2
KSTK 191010Z AUTO 00000KT 10SM CLR 17/14 A3003 RMK AO2
KSTK 190950Z AUTO 04008KT 10SM CLR 17/14 A3002 RMK AO2
KSTK 190930Z AUTO 01006KT 10SM CLR 17/13 A3002 RMK AO2
KSTK 190910Z AUTO 33004KT 10SM CLR 17/13 A3002 RMK AO2
KSTK 190850Z AUTO 36005KT 10SM CLR 17/13 A3002 RMK AO2
KSTK 190830Z AUTO 33005KT 10SM CLR 17/14 A3002 RMK AO2
KSTK 190810Z AUTO 34004KT 10SM CLR 18/14 A3002 RMK AO2
KSTK 190750Z AUTO 27003KT 10SM CLR 18/14 A3002 RMK AO2
KSTK 190730Z AUTO 24004KT 10SM CLR 18/15 A3002 RMK AO2
KSTK 190710Z AUTO 21003KT 10SM CLR 18/15 A3003 RMK AO2
KSTK 190650Z AUTO 23003KT 10SM CLR 18/15 A3003 RMK AO2
KSTK 190630Z AUTO 20004KT 10SM CLR 19/15 A3004 RMK AO2
KSTK 190610Z AUTO 22003KT 10SM CLR 19/15 A3004 RMK AO2
KSTK 190550Z AUTO 00000KT 10SM CLR 20/15 A3004 RMK AO2
KSTK 190530Z AUTO 00000KT 10SM CLR 22/16 A3004 RMK AO2
KSTK 190510Z AUTO 00000KT 10SM CLR 21/15 A3004 RMK AO2
KSTK 190450Z AUTO 00000KT 10SM CLR 22/16 A3004 RMK AO2
KSTK 190430Z AUTO 00000KT 10SM CLR 22/16 A3004 RMK AO2
KSTK 190410Z AUTO 04003KT 10SM CLR 22/15 A3004 RMK AO2
KSTK 190350Z AUTO 05004KT 10SM CLR 23/16 A3004 RMK AO2
KSTK 190330Z AUTO 05005KT 10SM CLR 25/16 A3003 RMK AO2
KSTK 190310Z AUTO 05006KT 10SM CLR 26/16 A3001 RMK AO2
KSTK 190250Z AUTO 06004KT 10SM CLR 26/16 A3001 RMK AO2
KSTK 190230Z AUTO 05005KT 10SM CLR 27/16 A3000 RMK AO2
KSTK 190210Z AUTO 05007KT 10SM CLR 28/15 A2999 RMK AO2
KSTK 190150Z AUTO 05007KT 10SM CLR 28/15 A2999 RMK AO2
KSTK 190130Z AUTO 06005KT 10SM CLR 30/15 A2998 RMK AO2
KSTK 190110Z AUTO 05007KT 10SM CLR 30/15 A2999 RMK AO2
KSTK 190055Z AUTO 06007KT 10SM CLR 31/15 A2998 RMK AO2
KSTK 190035Z AUTO 06008KT 10SM CLR 31/14 A2998 RMK AO2
KSTK 190015Z AUTO 04008KT 10SM CLR 32/13 A2999 RMK AO2
KSTK 182350Z AUTO 06007KT 10SM CLR 32/15 A2999 RMK AO2
KSTK 182330Z AUTO 04009KT 10SM CLR 33/13 A2999 RMK AO2
KSTK 182310Z AUTO 06009KT 10SM CLR 32/14 A2999 RMK AO2
KSTK 182250Z AUTO 07009KT 10SM CLR 33/13 A3000 RMK AO2
KSTK 182230Z AUTO 05012G15KT 10SM CLR 33/13 A2999 RMK AO2
KSTK 182210Z AUTO 04010KT 10SM CLR 33/12 A2999 RMK AO2
KSTK 182150Z AUTO 05006KT 10SM CLR 34/11 A3001 RMK AO2
KSTK 182130Z AUTO 06008KT 022V092 10SM CLR 33/10 A3001 RMK AO2
KSTK 182110Z AUTO 07007KT 10SM CLR 33/11 A3002 RMK AO2
KSTK 182050Z AUTO 08006KT 10SM CLR 33/12 A3002 RMK AO2
KSTK 182030Z AUTO 07008KT 10SM CLR 32/11 A3003 RMK AO2
KSTK 182010Z AUTO 07007KT 10SM SCT080 33/13 A3004 RMK AO2
KSTK 181950Z AUTO 07006KT 10SM SCT080 SCT110 32/14 A3004 RMK AO2
KSTK 181930Z AUTO 18006KT 10SM CLR 32/15 A3004 RMK AO2
KSTK 181910Z AUTO 12003KT 10SM CLR 32/14 A3005 RMK AO2
KSTK 181850Z AUTO 06004KT 10SM CLR 32/13 A3006 RMK AO2
KSTK 181830Z AUTO 17005KT 10SM CLR 30/16 A3007 RMK AO2
KSTK 181810Z AUTO 15003KT 10SM CLR 29/16 A3008 RMK AO2
KSTK 181750Z AUTO 00000KT 10SM CLR 28/16 A3008 RMK AO2
KSTK 181730Z AUTO 23006KT 10SM CLR 28/16 A3008 RMK AO2
KSTK 181710Z AUTO 24006KT 10SM CLR 27/17 A3010 RMK AO2
KSTK 181650Z AUTO 27005KT 10SM CLR 26/17 A3010 RMK AO2
KSTK 181630Z AUTO 27003KT 10SM CLR 26/17 A3010 RMK AO2
KSTK 181610Z AUTO 26004KT 10SM CLR 24/17 A3010 RMK AO2
KSTK 181550Z AUTO 27007KT 10SM SCT021 24/17 A3010 RMK AO2
KSTK 181530Z AUTO 00000KT 10SM SCT017 23/17 A3010 RMK AO2